Historyczne dane pomiarowe

Dodano dane terminowe – wersja testowa.

Dane z okresu 1951-2019

Wersja bazy: 1.34 [2019-03-16, lista zmian], aktualizacja planowana na 2019-04-15

Dane meteo z obszaru Polski uzyskane na podstawie danych udostępnionych przez Instytut Meteorologii i Gospodarki Wodnej – Państwowy Instytut Badawczy.

 

Wybierz Datę:    

       

TemperaturaWilgotnośćWiatrCiśnienieOpadyŚniegCzas trwania zjawisk
 Stacja t tx tn tng RH VA  wxwx mslp ppp RRR   cm mm wxwxwxwxwxwxwx
2015-09-11 11.8 19.2 2.0 -2.0 76.3- 3.0 4.7---- 0.0------------
2015-09-12 12.9 18.2 8.7 9.3 73.0- 6.0 4.3---- 0.0------------
2015-09-13 14.2 17.7 9.5 9.6 80.8- 8.0 3.7---- 0.0------------
2015-09-14 12.8 18.7 6.9 5.5 84.0- 6.3 4.3---- 3.5------------
2015-09-15 17.2 22.1 13.1 13.4 86.0- 5.3 2.3---- 12.5------------
2015-09-16 18.5 24.8 12.3 11.3 86.0- 7.0 1.0---- 0.0------------
2015-09-17 20.5 29.0 13.3 11.9 80.3- 1.7 2.0---- 0.0------------
2015-09-18 16.8 22.1 13.4 11.1 81.3- 4.3 4.3---- 0.0------------
2015-09-19 12.3 20.9 7.0 3.4 88.8- 3.3 0.7---- 0.0------------
2015-09-20 10.9 20.3 2.1 0.2 88.3- 6.0 1.3---- 2.0------------
2015-09-21 10.6 13.9 8.3 5.6 82.5- 4.3 3.3---- 0.0------------
2015-09-22 8.7 17.5 1.2 -0.3 84.5- 5.3 2.0---- 0.0------------
2015-09-23 14.3 22.2 8.2 6.5 79.0- 5.3 2.3---- 0.0------------
2015-09-24 16.7 23.8 9.6 7.2 83.5- 3.3 3.0---- 2.7------------
2015-09-25 14.8 18.3 11.6 11.7 86.5- 7.3 3.7---- 5.0------------
2015-09-26 13.4 15.8 11.2 11.8 81.5- 7.0 5.3---- 0.7------------
2015-09-27 9.8 16.3 5.0 0.8 85.8- 0.7 4.0---- 0.1------------
2015-09-28 9.8 16.3 1.9 -3.4 83.8- 6.7 3.7---- 0.0------------
2015-09-29 7.3 14.3 0.1 -4.4 84.0- 5.3 2.7---- 0.0------------
2015-09-30 9.1 15.0 3.9 1.7 76.3- 1.3 1.3---- 0.0------------
2015-10-01 6.2 16.2 -3.7 -7.1 84.8- 1.3 2.7---- 0.0------------
2015-10-02 9.8 17.1 4.2 2.0 74.8- 1.3 4.0---- 0.0------------
2015-10-03 7.8 16.2 -2.0 -5.0 85.5- 2.0 1.3---- 0.0------------
2015-10-04 9.9 21.2 -1.0 -4.0 77.0- 1.3 1.3---- 0.0------------
2015-10-05 9.1 16.7 1.7 1.1 95.0- 2.7 1.3---- 0.0------------
2015-10-06 9.9 14.4 6.3 4.2 79.3- 3.7 4.3---- 0.0------------
2015-10-07 1.7 9.4 -4.3 -6.4 70.5- 0.3 4.3---- 0.0------------
2015-10-08 0.3 9.5 -8.0-13.6 71.8- 0.0 2.7---- 0.0------------
2015-10-09 -2.7 7.6-11.0-15.3 81.3- 1.3 1.3---- 0.0------------
2015-10-10 -2.9 8.1-11.6-16.0 79.8- 1.0 1.0---- 0.0------------
88.7 ms

 

Źródłem pochodzenia danych jest Instytut Meteorologii i Gospodarki Wodnej – Państwowy Instytut Badawczy. Dane Instytutu Meteorologii i Gospodarki Wodnej – Państwowego Instytutu Badawczego zostały przetworzone.

Dane źródłowe można odnaleźć na stronie https://dane.imgw.pl